Terminal Aerodrome Forecast
Issued by NWS Omaha/Valley, NE

Home | Current Version | Previous Version | Text Only | Print | Product List | Glossary Off
Versions: 1 2 3 4 5 6 7 8 9 10 11 12 13 14 15 16 17 18 19 20 21 22 23 24 25 26 27 28 29 30 31 32 33 34 35 36 37 38

000
FTUS43 KOAX 011406 AAA
TAFOFK
TAF AMD
KOFK 011406Z 0114/0212 12008KT P6SM FEW005 SCT025 SCT100
      TEMPO 0114/0116 5SM BR BKN025
     FM011700 34008KT P6SM BKN040=

USA.gov is the U.S. government's official web portal to all federal, state and local government web resources and services.